Time;durP1;ratioP1;P1;durP2;ratioP2;P2;SDS_P1;SDS_P2;PMS_P1;PMS_P2;Temp;Humidity;BMP_temperature;BMP_pressure;BME280_temperature;BME280_humidity;BME280_pressure;Samples;Min_cycle;Max_cycle;Signal;HPM_P1;HPM_P2
2023/03/29 00:00:24;;;;;;;2.43;1.00;;;10.00;99.90;;;;;;4927058;28;20422;-86
2023/03/29 00:02:50;;;;;;;1.75;0.98;;;10.00;99.90;;;;;;4923984;28;20024;-85
2023/03/29 00:05:21;;;;;;;1.52;1.00;;;10.00;99.90;;;;;;4929795;28;20340;-85
2023/03/29 00:07:52;;;;;;;1.58;1.00;;;10.00;99.90;;;;;;4918094;28;20503;-87
2023/03/29 00:10:21;;;;;;;1.40;1.00;;;10.00;99.90;;;;;;4923962;28;20123;-86
2023/03/29 00:12:47;;;;;;;1.03;0.90;;;10.00;99.90;;;;;;4911861;28;20023;-86
2023/03/29 00:15:13;;;;;;;2.85;1.13;;;10.10;99.90;;;;;;4923878;28;20193;-86
2023/03/29 00:17:39;;;;;;;2.88;1.13;;;10.10;99.90;;;;;;4924047;28;20032;-86
2023/03/29 00:20:09;;;;;;;1.77;0.93;;;10.10;99.90;;;;;;4943166;28;20040;-86
2023/03/29 00:22:38;;;;;;;1.50;1.07;;;10.10;99.90;;;;;;4925187;29;20038;-86
2023/03/29 00:25:06;;;;;;;2.60;0.98;;;10.10;99.90;;;;;;4922935;29;20032;-86
2023/03/29 00:27:32;;;;;;;1.33;0.95;;;10.10;99.90;;;;;;4932295;28;20151;-87
2023/03/29 00:29:58;;;;;;;1.60;0.90;;;10.10;99.90;;;;;;4905517;29;20031;-86
2023/03/29 00:32:24;;;;;;;2.28;1.08;;;10.10;99.90;;;;;;4921975;28;20059;-86
2023/03/29 00:34:50;;;;;;;1.70;0.93;;;10.10;99.90;;;;;;4949043;28;20119;-86
2023/03/29 00:37:18;;;;;;;1.20;1.00;;;10.10;99.90;;;;;;4924223;28;20731;-86
2023/03/29 00:39:44;;;;;;;1.40;1.10;;;10.20;99.90;;;;;;4934203;28;20027;-87
2023/03/29 00:42:15;;;;;;;1.30;0.93;;;10.20;99.90;;;;;;4924439;28;20259;-86
2023/03/29 00:45:05;;;;;;;1.50;1.00;;;10.20;99.90;;;;;;4906906;28;20050;-86
2023/03/29 00:47:42;;;;;;;1.75;0.82;;;10.20;99.90;;;;;;4923779;28;20097;-86
2023/03/29 00:50:28;;;;;;;1.50;0.90;;;10.20;99.90;;;;;;4932956;28;20031;-87
2023/03/29 00:53:02;;;;;;;1.63;1.02;;;10.20;99.90;;;;;;4923105;28;20055;-86
2023/03/29 00:55:38;;;;;;;1.93;0.90;;;10.30;99.90;;;;;;4922617;28;20035;-86
2023/03/29 00:58:07;;;;;;;1.40;0.80;;;10.30;99.90;;;;;;4945013;28;20504;-87
2023/03/29 01:00:38;;;;;;;1.35;1.00;;;10.30;99.90;;;;;;4904026;28;20102;-86
2023/03/29 01:03:12;;;;;;;1.13;0.90;;;10.30;99.90;;;;;;4929044;28;20965;-86
2023/03/29 01:05:43;;;;;;;2.05;1.00;;;10.30;99.90;;;;;;4940891;28;20218;-86
2023/03/29 01:08:17;;;;;;;1.70;1.00;;;10.30;99.90;;;;;;4909738;29;20042;-87
2023/03/29 01:10:55;;;;;;;1.75;1.00;;;10.40;99.90;;;;;;4929391;29;20087;-86
2023/03/29 01:13:53;;;;;;;1.20;0.80;;;10.30;99.90;;;;;;4913236;28;20032;-86
2023/03/29 01:16:20;;;;;;;2.08;0.88;;;10.30;99.90;;;;;;4920200;28;20074;-86
2023/03/29 01:18:47;;;;;;;1.13;0.90;;;10.40;99.90;;;;;;4925675;28;20269;-87
2023/03/29 01:21:15;;;;;;;1.37;0.97;;;10.40;99.90;;;;;;4930351;29;20047;-86
2023/03/29 01:24:09;;;;;;;1.52;0.93;;;10.40;99.90;;;;;;4925834;28;20394;-87
2023/03/29 01:26:58;;;;;;;2.30;1.00;;;10.40;99.90;;;;;;4933550;29;20229;-86
2023/03/29 01:29:24;;;;;;;1.52;1.00;;;10.40;99.90;;;;;;4910631;28;20035;-86
2023/03/29 01:32:00;;;;;;;2.08;0.80;;;10.50;99.90;;;;;;4911947;29;20031;-87
2023/03/29 01:34:54;;;;;;;1.50;1.07;;;10.40;99.90;;;;;;4926071;28;20509;-86
2023/03/29 01:37:28;;;;;;;1.00;0.80;;;10.40;99.90;;;;;;4914722;29;20038;-86
2023/03/29 01:39:54;;;;;;;1.25;0.80;;;10.40;99.90;;;;;;4941610;28;20514;-86
2023/03/29 01:43:17;;;;;;;1.70;1.00;;;10.50;99.90;;;;;;4932016;29;20239;-86
2023/03/29 01:46:05;;;;;;;2.72;1.08;;;10.50;99.90;;;;;;4927891;28;20078;-86
2023/03/29 01:48:35;;;;;;;1.38;0.80;;;10.50;99.90;;;;;;4939509;28;20109;-86
2023/03/29 01:51:11;;;;;;;1.95;0.90;;;10.40;99.90;;;;;;4940974;28;20051;-87
2023/03/29 01:53:42;;;;;;;2.25;1.00;;;10.40;99.90;;;;;;4931731;28;20214;-85
2023/03/29 01:56:16;;;;;;;1.80;1.00;;;10.40;99.90;;;;;;4927075;28;20122;-87
2023/03/29 01:58:46;;;;;;;1.65;1.00;;;10.40;99.90;;;;;;4931173;29;20178;-87
2023/03/29 02:01:16;;;;;;;2.10;1.17;;;10.40;99.90;;;;;;4915938;28;20019;-86
2023/03/29 02:03:48;;;;;;;1.85;1.10;;;10.40;99.90;;;;;;4943519;28;20054;-86
2023/03/29 02:06:19;;;;;;;1.63;1.00;;;10.50;99.90;;;;;;4924554;28;20617;-86
2023/03/29 02:08:46;;;;;;;2.53;1.10;;;10.50;99.90;;;;;;4948170;28;20034;-86
2023/03/29 02:11:12;;;;;;;2.53;1.25;;;10.50;99.90;;;;;;4923718;28;20182;-86
2023/03/29 02:13:38;;;;;;;2.50;1.20;;;10.50;99.90;;;;;;4930579;28;20293;-87
2023/03/29 02:16:11;;;;;;;2.55;1.13;;;10.50;99.90;;;;;;4918669;28;20521;-86
2023/03/29 02:18:42;;;;;;;2.40;1.37;;;10.40;99.90;;;;;;4922562;28;20107;-86
2023/03/29 02:21:08;;;;;;;2.10;1.25;;;10.50;99.90;;;;;;4940230;28;20066;-86
2023/03/29 02:23:44;;;;;;;2.92;1.10;;;10.40;99.90;;;;;;4932679;29;20031;-86
2023/03/29 02:26:10;;;;;;;2.13;1.20;;;10.40;99.90;;;;;;4910977;28;20317;-87
2023/03/29 02:28:36;;;;;;;2.95;1.13;;;10.40;99.90;;;;;;4936601;28;20027;-86
2023/03/29 02:31:22;;;;;;;2.13;1.10;;;10.40;99.90;;;;;;4917564;28;20393;-86
2023/03/29 02:34:27;;;;;;;2.63;1.23;;;10.40;99.90;;;;;;4925855;28;20038;-86
2023/03/29 02:36:57;;;;;;;1.42;1.10;;;10.40;99.90;;;;;;4928431;28;20035;-86
2023/03/29 02:39:25;;;;;;;2.10;1.30;;;10.50;99.90;;;;;;4909547;29;20043;-87
2023/03/29 02:41:53;;;;;;;2.58;1.30;;;10.50;99.90;;;;;;4931821;28;20031;-86
2023/03/29 02:44:25;;;;;;;3.10;1.30;;;10.50;99.90;;;;;;4930863;28;20245;-87
2023/03/29 02:46:56;;;;;;;2.20;1.25;;;10.50;99.90;;;;;;4911412;28;20038;-86
2023/03/29 02:49:22;;;;;;;3.47;1.48;;;10.50;99.90;;;;;;4906877;29;20027;-86
2023/03/29 02:51:51;;;;;;;2.83;1.33;;;10.50;99.90;;;;;;4951063;28;20054;-86
2023/03/29 02:54:24;;;;;;;3.30;1.42;;;10.60;99.90;;;;;;4943187;28;20360;-87
2023/03/29 02:56:59;;;;;;;3.27;2.00;;;10.60;99.90;;;;;;4930062;29;20077;-85
2023/03/29 02:59:25;;;;;;;3.78;1.70;;;10.70;99.90;;;;;;4932696;28;20359;-87
2023/03/29 03:01:52;;;;;;;4.32;1.73;;;10.70;99.90;;;;;;4914963;28;20355;-86
2023/03/29 03:04:19;;;;;;;4.05;1.70;;;10.80;99.90;;;;;;4926643;28;20724;-84
2023/03/29 03:06:46;;;;;;;3.53;1.70;;;10.80;99.90;;;;;;4931181;29;20023;-85
2023/03/29 03:09:13;;;;;;;5.97;2.07;;;10.80;99.90;;;;;;4935704;28;20526;-86
2023/03/29 03:11:39;;;;;;;3.95;1.75;;;10.90;99.90;;;;;;4934683;29;20496;-85
2023/03/29 03:14:06;;;;;;;3.45;1.80;;;10.90;99.90;;;;;;4908928;29;20020;-84
2023/03/29 03:16:32;;;;;;;4.67;1.87;;;11.00;99.90;;;;;;4920666;29;20722;-86
2023/03/29 03:18:58;;;;;;;3.75;1.80;;;11.00;99.90;;;;;;4916844;28;20038;-85
2023/03/29 03:21:24;;;;;;;4.18;1.80;;;11.10;99.90;;;;;;4924114;28;20038;-85
2023/03/29 03:23:50;;;;;;;3.92;1.80;;;11.20;99.90;;;;;;4926775;29;20035;-85
2023/03/29 03:26:17;;;;;;;2.90;1.50;;;11.20;99.90;;;;;;4946440;28;20183;-84
2023/03/29 03:28:44;;;;;;;3.38;1.70;;;11.20;99.90;;;;;;4926206;28;20042;-86
2023/03/29 03:31:10;;;;;;;3.90;1.80;;;11.20;99.90;;;;;;4933507;29;20390;-86
2023/03/29 03:33:35;;;;;;;3.10;1.60;;;11.30;99.90;;;;;;4899987;29;20034;-85
2023/03/29 03:36:01;;;;;;;2.83;1.70;;;11.30;99.90;;;;;;4938144;28;20377;-84
2023/03/29 03:38:33;;;;;;;3.55;1.60;;;11.30;99.90;;;;;;4942684;28;20608;-86
2023/03/29 03:41:00;;;;;;;3.78;1.85;;;11.40;99.90;;;;;;4932933;28;20055;-85
2023/03/29 03:43:27;;;;;;;3.57;1.97;;;11.40;99.90;;;;;;4941630;28;20027;-85
2023/03/29 03:45:53;;;;;;;3.97;1.60;;;11.40;99.90;;;;;;4924821;28;20174;-85
2023/03/29 03:48:19;;;;;;;2.83;1.50;;;11.50;99.90;;;;;;4913459;28;20039;-87
2023/03/29 03:50:53;;;;;;;3.55;1.52;;;11.50;99.90;;;;;;4935620;28;20326;-86
2023/03/29 03:53:22;;;;;;;3.75;1.80;;;11.50;99.90;;;;;;4933364;29;20095;-85
2023/03/29 03:55:49;;;;;;;4.97;2.40;;;11.50;99.90;;;;;;4925137;29;20208;-86
2023/03/29 03:58:16;;;;;;;3.47;1.70;;;11.50;99.90;;;;;;4919908;29;20107;-86
2023/03/29 04:00:43;;;;;;;3.25;1.60;;;11.50;99.90;;;;;;4937309;28;20411;-86
2023/03/29 04:03:09;;;;;;;4.65;1.70;;;11.50;99.90;;;;;;4931433;28;21091;-85
2023/03/29 04:05:39;;;;;;;4.38;1.90;;;11.50;99.90;;;;;;4916164;28;20023;-86
2023/03/29 04:08:05;;;;;;;3.93;1.83;;;11.50;99.90;;;;;;4921706;28;20564;-86
2023/03/29 04:10:32;;;;;;;4.45;1.80;;;11.50;99.90;;;;;;4926515;28;20027;-86
2023/03/29 04:13:01;;;;;;;4.25;2.10;;;11.50;99.90;;;;;;4928562;29;20245;-86
2023/03/29 04:15:28;;;;;;;5.28;2.20;;;11.50;99.90;;;;;;4925969;28;20086;-86
2023/03/29 04:17:55;;;;;;;4.35;2.00;;;11.60;99.90;;;;;;4928112;28;20701;-85
2023/03/29 04:20:21;;;;;;;3.57;1.70;;;11.60;99.90;;;;;;4918213;28;20032;-84
2023/03/29 04:22:47;;;;;;;3.15;1.50;;;11.60;99.90;;;;;;4923935;28;20867;-87
2023/03/29 04:25:13;;;;;;;3.78;2.05;;;11.60;99.90;;;;;;4933394;29;20023;-86
2023/03/29 04:27:39;;;;;;;3.80;1.70;;;11.60;99.90;;;;;;4939290;28;20071;-86
2023/03/29 04:30:06;;;;;;;5.70;2.20;;;11.60;99.90;;;;;;4930736;28;20027;-85
2023/03/29 04:32:32;;;;;;;3.42;1.88;;;11.60;99.90;;;;;;4937843;28;20058;-86
2023/03/29 04:34:57;;;;;;;4.55;2.00;;;11.60;99.90;;;;;;4914807;28;20040;-87
2023/03/29 04:37:23;;;;;;;3.60;1.87;;;11.60;99.90;;;;;;4933923;28;20031;-85
2023/03/29 04:39:51;;;;;;;5.88;2.20;;;11.60;99.90;;;;;;4923131;28;20027;-84
2023/03/29 04:42:16;;;;;;;3.40;1.73;;;11.60;99.90;;;;;;4927352;28;20023;-86
2023/03/29 04:44:42;;;;;;;4.93;2.10;;;11.60;99.90;;;;;;4930890;28;20063;-85
2023/03/29 04:47:12;;;;;;;3.13;1.92;;;11.70;99.90;;;;;;4925882;29;20484;-86
2023/03/29 04:49:38;;;;;;;3.40;1.50;;;11.70;99.90;;;;;;4931488;28;20614;-86
2023/03/29 04:52:04;;;;;;;4.90;1.90;;;11.70;99.90;;;;;;4913114;29;20562;-86
2023/03/29 04:54:30;;;;;;;4.40;1.80;;;11.80;99.90;;;;;;4923966;28;20062;-86
2023/03/29 04:56:56;;;;;;;3.33;1.70;;;11.70;99.90;;;;;;4911572;28;20118;-86
2023/03/29 04:59:22;;;;;;;3.40;1.80;;;11.80;99.90;;;;;;4934088;28;20644;-85
2023/03/29 05:01:47;;;;;;;4.03;1.80;;;11.80;99.90;;;;;;4926684;28;20019;-86
2023/03/29 05:04:13;;;;;;;3.87;1.80;;;11.80;99.90;;;;;;4936919;28;20034;-84
2023/03/29 05:06:39;;;;;;;2.78;1.65;;;11.80;99.90;;;;;;4916852;28;20110;-85
2023/03/29 05:09:06;;;;;;;3.75;1.85;;;11.80;99.90;;;;;;4923067;28;20042;-85
2023/03/29 05:11:32;;;;;;;3.70;1.90;;;11.80;99.90;;;;;;4925135;28;20408;-85
2023/03/29 05:14:01;;;;;;;5.85;1.90;;;11.80;99.90;;;;;;4935175;28;20028;-88
2023/03/29 05:16:30;;;;;;;3.97;1.80;;;11.80;99.90;;;;;;4925659;28;20392;-85
2023/03/29 05:18:56;;;;;;;3.83;1.88;;;11.80;99.90;;;;;;4936763;28;20023;-86
2023/03/29 05:21:22;;;;;;;4.70;2.00;;;11.80;99.90;;;;;;4918869;28;20035;-84
2023/03/29 05:23:48;;;;;;;3.57;2.00;;;11.80;99.90;;;;;;4936570;28;20556;-84
2023/03/29 05:26:14;;;;;;;3.90;2.20;;;11.80;99.90;;;;;;4912705;29;20081;-86
2023/03/29 05:28:40;;;;;;;4.57;2.13;;;11.80;99.90;;;;;;4932716;28;20039;-85
2023/03/29 05:31:07;;;;;;;6.30;2.53;;;11.80;99.90;;;;;;4939264;28;20050;-84
2023/03/29 05:33:34;;;;;;;5.93;2.28;;;11.80;99.90;;;;;;4924199;28;20249;-85
2023/03/29 05:36:04;;;;;;;5.32;2.30;;;11.90;99.90;;;;;;4921491;28;20149;-86
2023/03/29 05:38:31;;;;;;;3.15;1.83;;;11.90;99.90;;;;;;4905342;28;20126;-86
2023/03/29 05:40:57;;;;;;;4.40;2.00;;;11.90;99.90;;;;;;4923471;29;20457;-86
2023/03/29 05:43:23;;;;;;;3.80;1.67;;;11.90;99.90;;;;;;4930033;28;20288;-86
2023/03/29 05:45:52;;;;;;;3.65;1.73;;;12.00;99.90;;;;;;4936302;29;20552;-86
2023/03/29 05:48:18;;;;;;;3.10;1.75;;;12.00;99.90;;;;;;4925948;28;21562;-86
2023/03/29 05:50:49;;;;;;;3.80;1.95;;;12.00;99.90;;;;;;4921096;29;20437;-88
2023/03/29 05:53:16;;;;;;;2.40;1.43;;;12.00;99.90;;;;;;4916345;29;20227;-84
2023/03/29 05:55:42;;;;;;;4.38;2.05;;;12.00;99.90;;;;;;4903094;29;20023;-86
2023/03/29 05:58:09;;;;;;;3.40;1.73;;;12.00;99.90;;;;;;4922123;28;20027;-86
2023/03/29 06:00:38;;;;;;;3.33;1.80;;;12.00;99.90;;;;;;4920567;29;20034;-86
2023/03/29 06:03:04;;;;;;;3.20;1.63;;;12.00;99.90;;;;;;4931523;29;20090;-85
2023/03/29 06:05:30;;;;;;;4.30;1.93;;;12.10;99.90;;;;;;4923918;28;20433;-86
2023/03/29 06:07:56;;;;;;;2.88;1.63;;;12.10;99.90;;;;;;4921398;28;20023;-85
2023/03/29 06:10:23;;;;;;;3.20;1.80;;;12.10;99.90;;;;;;4915015;28;20727;-85
2023/03/29 06:12:50;;;;;;;4.10;1.93;;;12.20;99.90;;;;;;4926782;28;20035;-86
2023/03/29 06:15:16;;;;;;;4.05;2.00;;;12.20;99.90;;;;;;4909549;28;20035;-84
2023/03/29 06:17:44;;;;;;;3.63;1.70;;;12.20;99.90;;;;;;4933619;29;20038;-85
2023/03/29 06:20:11;;;;;;;4.32;1.70;;;12.20;99.90;;;;;;4925357;28;20516;-85
2023/03/29 06:22:40;;;;;;;3.47;1.85;;;12.30;99.90;;;;;;4930498;29;20381;-85
2023/03/29 06:25:11;;;;;;;3.60;1.70;;;12.30;99.90;;;;;;4905021;28;20043;-85
2023/03/29 06:27:36;;;;;;;4.07;1.98;;;12.30;99.90;;;;;;4932424;28;20067;-85
2023/03/29 06:30:04;;;;;;;2.88;1.50;;;12.30;99.90;;;;;;4925038;29;20613;-86
2023/03/29 06:32:32;;;;;;;3.95;1.92;;;12.30;99.90;;;;;;4932531;29;20117;-85
2023/03/29 06:34:58;;;;;;;4.10;1.73;;;12.30;99.90;;;;;;4946089;28;20242;-84
2023/03/29 06:37:24;;;;;;;4.72;1.90;;;12.30;99.90;;;;;;4925647;28;20152;-86
2023/03/29 06:39:52;;;;;;;4.20;2.00;;;12.30;99.90;;;;;;4924491;28;20055;-85
2023/03/29 06:42:21;;;;;;;5.10;1.83;;;12.40;99.90;;;;;;4931708;28;20031;-86
2023/03/29 06:44:48;;;;;;;4.97;1.90;;;12.30;99.90;;;;;;4939845;28;20292;-85
2023/03/29 06:47:15;;;;;;;4.60;2.03;;;12.40;99.90;;;;;;4931841;29;20028;-85
2023/03/29 06:49:41;;;;;;;4.65;2.03;;;12.40;99.90;;;;;;4923784;28;20035;-85
2023/03/29 06:52:07;;;;;;;3.65;1.75;;;12.40;99.90;;;;;;4928146;28;20444;-85
2023/03/29 06:54:33;;;;;;;3.50;1.80;;;12.40;99.90;;;;;;4928806;29;20034;-85
2023/03/29 06:56:59;;;;;;;4.22;2.00;;;12.40;99.90;;;;;;4928088;28;20517;-87
2023/03/29 06:59:25;;;;;;;4.40;1.80;;;12.40;99.90;;;;;;4930570;28;20409;-85
2023/03/29 07:01:54;;;;;;;3.53;1.70;;;12.40;99.90;;;;;;4931425;28;20185;-85
2023/03/29 07:04:22;;;;;;;3.00;1.70;;;12.40;99.90;;;;;;4931340;28;20519;-85
2023/03/29 07:07:00;;;;;;;4.57;2.10;;;12.40;99.90;;;;;;4921420;28;23015;-86
2023/03/29 07:09:29;;;;;;;4.25;2.20;;;12.50;99.90;;;;;;4934307;29;20582;-85
2023/03/29 07:11:59;;;;;;;3.38;1.90;;;12.50;99.90;;;;;;4891210;28;20264;-86
2023/03/29 07:14:27;;;;;;;4.17;2.00;;;12.50;99.90;;;;;;4928599;29;20039;-85
2023/03/29 07:16:59;;;;;;;5.05;1.83;;;12.50;99.90;;;;;;4928155;28;20023;-85
2023/03/29 07:19:27;;;;;;;3.75;2.10;;;12.60;99.90;;;;;;4932073;28;20102;-85
2023/03/29 07:21:53;;;;;;;4.60;1.90;;;12.60;99.90;;;;;;4930913;28;20156;-86
2023/03/29 07:24:20;;;;;;;4.47;1.90;;;12.60;99.90;;;;;;4924394;28;20019;-85
2023/03/29 07:26:47;;;;;;;4.83;2.07;;;12.60;99.90;;;;;;4924907;28;20077;-84
2023/03/29 07:29:13;;;;;;;4.93;2.20;;;12.60;99.90;;;;;;4912994;28;20055;-85
2023/03/29 07:31:40;;;;;;;3.80;1.92;;;12.60;99.90;;;;;;4923025;28;20501;-85
2023/03/29 07:34:09;;;;;;;4.05;2.10;;;12.70;99.90;;;;;;4931353;29;20110;-86
2023/03/29 07:36:38;;;;;;;3.65;1.92;;;12.70;99.90;;;;;;4932363;28;20031;-85
2023/03/29 07:39:08;;;;;;;4.70;1.80;;;12.70;99.90;;;;;;4943622;28;20030;-87
2023/03/29 07:41:34;;;;;;;3.22;1.73;;;12.70;99.90;;;;;;4924413;28;20499;-85
2023/03/29 07:44:05;;;;;;;4.32;2.22;;;12.80;99.90;;;;;;4897222;29;20031;-83
2023/03/29 07:46:31;;;;;;;4.38;2.15;;;12.80;99.90;;;;;;4921602;28;20520;-85
2023/03/29 07:48:56;;;;;;;5.63;2.77;;;12.80;99.90;;;;;;4946633;28;20130;-85
2023/03/29 07:51:22;;;;;;;4.00;2.15;;;12.80;99.90;;;;;;4933494;28;20555;-84
2023/03/29 07:53:48;;;;;;;4.20;2.27;;;12.80;99.90;;;;;;4936919;28;20523;-87
2023/03/29 07:56:14;;;;;;;3.55;2.00;;;12.80;99.90;;;;;;4934512;29;20085;-85
2023/03/29 07:58:40;;;;;;;4.47;2.13;;;12.80;99.90;;;;;;4903463;28;20706;-85
2023/03/29 08:01:07;;;;;;;4.70;2.20;;;12.80;99.90;;;;;;4910350;29;20040;-86
2023/03/29 08:03:33;;;;;;;3.75;2.25;;;12.80;99.90;;;;;;4928512;28;20118;-85
2023/03/29 08:06:03;;;;;;;3.92;2.22;;;12.80;99.90;;;;;;4931968;28;20122;-85
2023/03/29 08:08:28;;;;;;;4.68;2.15;;;12.80;99.90;;;;;;4931629;28;20027;-85
2023/03/29 08:10:54;;;;;;;3.47;2.17;;;12.80;99.90;;;;;;4922846;28;20336;-85
2023/03/29 08:13:20;;;;;;;4.97;2.00;;;12.80;99.90;;;;;;4922596;28;20062;-85
2023/03/29 08:15:47;;;;;;;3.77;2.27;;;12.80;99.90;;;;;;4924758;28;20190;-85
2023/03/29 08:18:13;;;;;;;4.45;2.08;;;12.80;99.90;;;;;;4921561;29;20488;-87
2023/03/29 08:20:39;;;;;;;3.72;2.17;;;12.80;99.90;;;;;;4930062;28;20031;-85
2023/03/29 08:23:05;;;;;;;3.50;2.17;;;12.80;99.90;;;;;;4929287;28;20027;-85
2023/03/29 08:25:31;;;;;;;3.93;2.10;;;12.80;99.90;;;;;;4908284;28;20697;-85
2023/03/29 08:27:57;;;;;;;3.55;1.92;;;12.80;99.90;;;;;;4928670;29;20214;-86
2023/03/29 08:30:22;;;;;;;3.88;1.75;;;12.80;99.90;;;;;;4907318;28;20332;-85
2023/03/29 08:32:48;;;;;;;4.50;2.37;;;12.80;99.90;;;;;;4922400;28;20668;-85
2023/03/29 08:35:14;;;;;;;3.22;2.10;;;12.80;99.90;;;;;;4923137;28;20521;-86
2023/03/29 08:37:41;;;;;;;4.53;2.20;;;12.80;99.90;;;;;;4913985;28;20016;-85
2023/03/29 08:40:09;;;;;;;5.10;2.00;;;12.80;99.90;;;;;;4937051;28;20062;-85
2023/03/29 08:42:53;;;;;;;3.08;1.83;;;12.80;99.90;;;;;;4927148;29;20429;-86
2023/03/29 08:45:48;;;;;;;3.13;1.73;;;12.90;99.90;;;;;;4908240;28;20537;-87
2023/03/29 08:48:24;;;;;;;4.53;2.05;;;12.90;99.90;;;;;;4925687;29;20208;-86
2023/03/29 08:50:53;;;;;;;4.00;2.20;;;13.00;99.90;;;;;;4937250;28;20132;-87
2023/03/29 08:53:21;;;;;;;4.65;2.17;;;13.10;99.90;;;;;;4933985;28;20674;-87
2023/03/29 08:55:50;;;;;;;4.03;1.90;;;13.10;99.90;;;;;;4933970;28;20023;-87
2023/03/29 08:58:25;;;;;;;3.35;2.00;;;13.10;99.90;;;;;;4924539;28;20265;-86
2023/03/29 09:00:57;;;;;;;3.80;2.00;;;13.20;99.90;;;;;;4906720;28;20602;-86
2023/03/29 09:03:26;;;;;;;3.30;2.10;;;13.30;99.90;;;;;;4923920;29;20027;-86
2023/03/29 09:06:05;;;;;;;3.78;2.13;;;13.30;99.90;;;;;;4951053;28;20031;-85
2023/03/29 09:08:41;;;;;;;3.85;2.05;;;13.40;99.90;;;;;;4931694;29;20035;-86
2023/03/29 09:11:22;;;;;;;4.72;2.30;;;13.50;99.90;;;;;;4923954;29;20621;-85
2023/03/29 09:14:09;;;;;;;4.57;2.00;;;13.50;99.90;;;;;;4927556;29;20240;-87
2023/03/29 09:16:54;;;;;;;3.57;1.83;;;13.60;99.90;;;;;;4928281;28;20032;-85
2023/03/29 09:19:26;;;;;;;4.65;2.30;;;13.70;99.90;;;;;;4927660;28;20034;-85
2023/03/29 09:22:19;;;;;;;4.05;2.30;;;13.80;99.90;;;;;;4951100;28;20262;-85
2023/03/29 09:25:06;;;;;;;4.40;2.10;;;13.80;99.90;;;;;;4948072;28;20023;-86
2023/03/29 09:27:37;;;;;;;3.20;2.03;;;13.90;99.90;;;;;;4906095;28;20516;-86
2023/03/29 09:30:25;;;;;;;4.40;1.97;;;14.00;99.90;;;;;;4953296;28;20106;-86
2023/03/29 09:32:57;;;;;;;3.55;1.95;;;14.10;99.90;;;;;;4912596;28;20588;-86
2023/03/29 09:35:35;;;;;;;3.60;1.90;;;14.20;99.90;;;;;;4928516;28;20370;-86
2023/03/29 09:38:02;;;;;;;3.65;2.05;;;14.30;99.90;;;;;;4934914;28;20513;-84
2023/03/29 09:40:43;;;;;;;4.13;2.30;;;14.30;99.90;;;;;;4932512;28;20678;-86
2023/03/29 09:43:12;;;;;;;3.47;2.27;;;14.40;99.90;;;;;;4925821;28;20027;-84
2023/03/29 09:45:39;;;;;;;4.63;2.42;;;14.50;99.90;;;;;;4906134;29;20112;-85
2023/03/29 09:48:13;;;;;;;4.40;2.28;;;14.50;99.90;;;;;;4916451;28;20179;-85
2023/03/29 09:50:45;;;;;;;4.55;2.38;;;14.60;99.90;;;;;;4930309;29;20023;-86
2023/03/29 09:53:13;;;;;;;4.90;2.72;;;14.50;99.90;;;;;;4950366;28;20027;-84
2023/03/29 09:55:39;;;;;;;5.23;2.33;;;14.60;99.90;;;;;;4919832;29;20479;-87
2023/03/29 09:58:15;;;;;;;4.22;2.63;;;14.70;99.90;;;;;;4946099;28;20027;-86
2023/03/29 10:00:41;;;;;;;6.00;3.08;;;14.80;99.90;;;;;;4933062;29;20346;-85
2023/03/29 10:03:08;;;;;;;6.88;3.17;;;14.90;99.90;;;;;;4914346;29;20709;-85
2023/03/29 10:05:39;;;;;;;4.47;2.83;;;15.10;99.90;;;;;;4920821;28;20121;-86
2023/03/29 10:08:21;;;;;;;6.27;3.17;;;15.20;99.90;;;;;;4931113;28;20116;-85
2023/03/29 10:10:47;;;;;;;4.82;2.88;;;15.40;99.90;;;;;;4920090;29;20027;-86
2023/03/29 10:13:21;;;;;;;4.68;2.90;;;15.60;99.90;;;;;;4926934;28;20488;-85
2023/03/29 10:16:01;;;;;;;4.68;2.60;;;15.90;99.90;;;;;;4950601;28;20384;-86
2023/03/29 10:18:29;;;;;;;6.18;2.92;;;16.20;99.90;;;;;;4913040;28;20054;-86
2023/03/29 10:21:01;;;;;;;5.10;2.63;;;16.40;99.90;;;;;;4916947;28;20521;-86
2023/03/29 10:23:36;;;;;;;4.57;2.65;;;16.70;99.90;;;;;;4923846;28;20130;-83
2023/03/29 10:26:05;;;;;;;5.07;2.65;;;17.00;99.90;;;;;;4950253;28;20030;-86
2023/03/29 10:28:33;;;;;;;3.45;2.30;;;17.10;99.90;;;;;;4933099;28;20600;-84
2023/03/29 10:31:02;;;;;;;3.47;2.50;;;17.40;99.90;;;;;;4945216;28;20385;-85
2023/03/29 10:33:34;;;;;;;5.60;2.87;;;17.50;99.90;;;;;;4930891;28;20592;-86
2023/03/29 10:36:03;;;;;;;4.95;2.70;;;17.70;99.90;;;;;;4916078;28;20440;-85
2023/03/29 10:38:29;;;;;;;3.50;2.30;;;17.80;99.90;;;;;;4941784;28;20065;-86
2023/03/29 10:41:04;;;;;;;4.43;2.50;;;17.80;99.90;;;;;;4918578;29;20023;-87
2023/03/29 10:43:36;;;;;;;5.63;2.70;;;17.90;99.90;;;;;;4914698;28;20319;-85
2023/03/29 10:46:27;;;;;;;3.65;2.60;;;17.90;99.90;;;;;;4911436;29;20050;-86
2023/03/29 10:49:01;;;;;;;3.83;2.10;;;18.00;99.90;;;;;;4919642;29;20043;-89
2023/03/29 10:51:29;;;;;;;3.70;2.58;;;18.10;99.90;;;;;;4917626;28;20489;-85
2023/03/29 10:53:57;;;;;;;5.50;2.85;;;18.10;99.90;;;;;;4925475;28;20109;-86
2023/03/29 10:56:44;;;;;;;4.80;2.50;;;18.20;99.90;;;;;;4945669;28;20284;-86
2023/03/29 10:59:30;;;;;;;3.88;2.17;;;18.30;99.90;;;;;;4918180;28;20027;-86
2023/03/29 11:02:13;;;;;;;4.50;2.10;;;18.30;99.90;;;;;;4940241;28;20627;-86
2023/03/29 11:04:45;;;;;;;5.63;2.17;;;18.40;99.90;;;;;;4931482;29;20082;-87
2023/03/29 11:07:29;;;;;;;3.15;1.90;;;18.50;99.90;;;;;;4921668;28;20114;-86
2023/03/29 11:10:03;;;;;;;3.23;1.70;;;18.50;99.90;;;;;;4930312;28;20040;-88
2023/03/29 11:12:55;;;;;;;3.17;1.80;;;18.50;99.90;;;;;;4933399;28;20114;-86
2023/03/29 11:15:35;;;;;;;3.03;1.83;;;18.50;99.90;;;;;;4932120;28;20125;-87
2023/03/29 11:18:21;;;;;;;3.10;1.90;;;18.60;99.90;;;;;;4926970;28;20647;-85
2023/03/29 11:20:51;;;;;;;3.20;1.90;;;18.50;99.90;;;;;;4927854;28;20425;-85
2023/03/29 11:23:48;;;;;;;3.37;1.97;;;18.50;99.90;;;;;;4925312;28;20058;-86
2023/03/29 11:26:23;;;;;;;2.80;1.70;;;18.40;99.90;;;;;;4944080;28;20162;-85
2023/03/29 11:29:10;;;;;;;3.25;1.98;;;18.40;99.90;;;;;;4916317;29;20038;-85
2023/03/29 11:31:42;;;;;;;2.67;1.80;;;18.40;99.90;;;;;;4934693;28;20043;-86
2023/03/29 11:34:45;;;;;;;3.30;1.80;;;18.40;99.90;;;;;;4925518;28;20054;-84
2023/03/29 11:37:20;;;;;;;2.43;1.60;;;18.40;99.80;;;;;;4931429;28;20044;-86
2023/03/29 11:40:41;;;;;;;2.63;1.65;;;18.40;99.90;;;;;;4927491;28;20082;-85
2023/03/29 11:43:22;;;;;;;3.17;1.63;;;18.50;99.90;;;;;;4898297;29;20536;-85
2023/03/29 11:46:12;;;;;;;2.75;1.50;;;18.60;99.90;;;;;;4915613;29;20044;-85
2023/03/29 11:48:49;;;;;;;2.90;1.80;;;18.70;99.90;;;;;;4912722;28;20993;-85
2023/03/29 11:51:26;;;;;;;2.63;1.60;;;18.80;99.90;;;;;;4930859;29;20034;-86
2023/03/29 11:54:06;;;;;;;3.47;1.92;;;18.80;99.90;;;;;;4931536;28;20038;-85
2023/03/29 11:57:03;;;;;;;2.75;1.60;;;18.90;99.90;;;;;;4917223;28;20032;-86
2023/03/29 11:59:40;;;;;;;3.13;1.80;;;18.80;99.90;;;;;;4945551;28;20129;-86
2023/03/29 12:02:14;;;;;;;3.38;1.83;;;18.80;99.90;;;;;;4932088;28;20035;-86
2023/03/29 12:04:47;;;;;;;4.67;2.17;;;18.70;99.90;;;;;;4917185;28;20038;-84
2023/03/29 12:07:22;;;;;;;3.38;1.80;;;18.70;99.90;;;;;;4946068;28;20038;-85
2023/03/29 12:10:22;;;;;;;3.40;1.70;;;18.80;99.90;;;;;;4946819;28;20409;-86
2023/03/29 12:13:17;;;;;;;2.30;1.67;;;18.90;99.90;;;;;;4928280;29;20025;-85
2023/03/29 12:16:24;;;;;;;2.83;1.80;;;19.00;99.90;;;;;;4934019;28;20486;-87
2023/03/29 12:18:54;;;;;;;4.10;2.00;;;19.00;99.90;;;;;;4912763;29;20032;-84
2023/03/29 12:21:23;;;;;;;2.55;2.03;;;19.10;99.90;;;;;;4908160;29;20134;-86
2023/03/29 12:23:49;;;;;;;2.38;1.80;;;19.10;99.90;;;;;;4933942;28;20082;-86
2023/03/29 12:26:15;;;;;;;2.88;1.90;;;19.20;99.90;;;;;;4917356;28;20059;-85
2023/03/29 12:29:08;;;;;;;3.03;2.20;;;19.30;99.90;;;;;;4942889;28;20049;-85
2023/03/29 12:31:49;;;;;;;3.00;2.10;;;19.30;99.90;;;;;;4918713;29;20548;-85
2023/03/29 12:34:21;;;;;;;3.88;2.38;;;19.30;99.90;;;;;;4924410;28;20111;-86
2023/03/29 12:37:19;;;;;;;3.95;2.42;;;19.40;99.90;;;;;;4939303;28;20039;-86
2023/03/29 12:39:47;;;;;;;2.88;2.30;;;19.40;99.90;;;;;;4921527;28;20170;-85
2023/03/29 12:42:19;;;;;;;4.05;2.53;;;19.50;99.90;;;;;;4894020;28;20153;-85
2023/03/29 12:44:49;;;;;;;2.93;2.20;;;19.50;99.90;;;;;;4942431;28;20053;-86
2023/03/29 12:47:30;;;;;;;3.08;2.17;;;19.50;99.90;;;;;;4918929;28;20023;-87
2023/03/29 12:49:58;;;;;;;3.92;2.42;;;19.60;99.90;;;;;;4937776;28;20019;-86
2023/03/29 12:52:31;;;;;;;4.57;2.60;;;19.70;99.90;;;;;;4927840;28;21207;-86
2023/03/29 12:55:00;;;;;;;3.17;2.17;;;19.80;99.90;;;;;;4929291;28;20032;-86
2023/03/29 12:57:42;;;;;;;2.80;2.23;;;20.00;99.90;;;;;;4925581;28;20027;-86
2023/03/29 13:00:22;;;;;;;3.15;2.53;;;20.10;99.90;;;;;;4926903;28;20104;-86
2023/03/29 13:03:26;;;;;;;3.17;2.35;;;20.30;99.90;;;;;;4909240;29;20032;-84
2023/03/29 13:06:03;;;;;;;2.75;2.00;;;20.40;99.90;;;;;;4920975;28;20024;-85
2023/03/29 13:08:36;;;;;;;2.10;1.90;;;20.40;99.90;;;;;;4917315;28;20540;-86
2023/03/29 13:11:04;;;;;;;2.40;1.63;;;20.50;99.90;;;;;;4944954;28;20034;-86